sensor_id;sensor_type;location;lat;lon;timestamp;pressure;altitude;pressure_sealevel;temperature
65290;BMP180;51893;59.754;10.110;2022-09-03T00:00:35;102396.80;;;15.20
65290;BMP180;51893;59.754;10.110;2022-09-03T00:03:21;102397.00;;;15.20
65290;BMP180;51893;59.754;10.110;2022-09-03T00:09:05;102398.60;;;15.20
65290;BMP180;51893;59.754;10.110;2022-09-03T00:12:04;102397.80;;;15.18
65290;BMP180;51893;59.754;10.110;2022-09-03T00:14:46;102398.60;;;15.10
65290;BMP180;51893;59.754;10.110;2022-09-03T00:17:22;102397.20;;;15.10
65290;BMP180;51893;59.754;10.110;2022-09-03T00:20:07;102397.80;;;15.08
65290;BMP180;51893;59.754;10.110;2022-09-03T00:22:45;102395.00;;;15.10
65290;BMP180;51893;59.754;10.110;2022-09-03T00:25:25;102397.80;;;15.10
65290;BMP180;51893;59.754;10.110;2022-09-03T00:27:57;102397.00;;;15.10
65290;BMP180;51893;59.754;10.110;2022-09-03T00:30:29;102396.80;;;15.10
65290;BMP180;51893;59.754;10.110;2022-09-03T00:33:07;102394.60;;;15.10
65290;BMP180;51893;59.754;10.110;2022-09-03T00:36:01;102393.20;;;15.08
65290;BMP180;51893;59.754;10.110;2022-09-03T00:38:31;102388.60;;;15.00
65290;BMP180;51893;59.754;10.110;2022-09-03T00:41:23;102387.60;;;14.90
65290;BMP180;51893;59.754;10.110;2022-09-03T00:44:26;102376.40;;;14.90
65290;BMP180;51893;59.754;10.110;2022-09-03T00:47:10;102375.00;;;14.80
65290;BMP180;51893;59.754;10.110;2022-09-03T00:52:56;102376.40;;;14.76
65290;BMP180;51893;59.754;10.110;2022-09-03T01:01:19;102362.60;;;14.70
65290;BMP180;51893;59.754;10.110;2022-09-03T01:13:04;102361.20;;;14.84
65290;BMP180;51893;59.754;10.110;2022-09-03T01:18:44;102356.20;;;14.90
65290;BMP180;51893;59.754;10.110;2022-09-03T01:26:54;102354.00;;;14.80
65290;BMP180;51893;59.754;10.110;2022-09-03T01:37:50;102349.00;;;14.88
65290;BMP180;51893;59.754;10.110;2022-09-03T01:40:50;102348.80;;;14.80
65290;BMP180;51893;59.754;10.110;2022-09-03T01:43:46;102352.00;;;14.80
65290;BMP180;51893;59.754;10.110;2022-09-03T01:46:42;102353.80;;;14.80
65290;BMP180;51893;59.754;10.110;2022-09-03T01:49:35;102353.60;;;14.80
65290;BMP180;51893;59.754;10.110;2022-09-03T01:52:14;102354.20;;;14.80
65290;BMP180;51893;59.754;10.110;2022-09-03T01:55:08;102354.80;;;14.82
65290;BMP180;51893;59.754;10.110;2022-09-03T01:57:59;102353.80;;;14.80
65290;BMP180;51893;59.754;10.110;2022-09-03T02:00:32;102356.60;;;14.80
65290;BMP180;51893;59.754;10.110;2022-09-03T02:03:06;102354.40;;;14.80
65290;BMP180;51893;59.754;10.110;2022-09-03T02:05:34;102350.60;;;14.80
65290;BMP180;51893;59.754;10.110;2022-09-03T02:08:08;102348.00;;;14.70
65290;BMP180;51893;59.754;10.110;2022-09-03T02:10:54;102346.60;;;14.78
65290;BMP180;51893;59.754;10.110;2022-09-03T02:13:47;102343.00;;;14.70
65290;BMP180;51893;59.754;10.110;2022-09-03T02:16:22;102341.00;;;14.70
65290;BMP180;51893;59.754;10.110;2022-09-03T02:18:57;102342.00;;;14.70
65290;BMP180;51893;59.754;10.110;2022-09-03T02:21:36;102333.80;;;14.70
65290;BMP180;51893;59.754;10.110;2022-09-03T02:24:07;102336.20;;;14.70
65290;BMP180;51893;59.754;10.110;2022-09-03T02:26:35;102335.80;;;14.70
65290;BMP180;51893;59.754;10.110;2022-09-03T02:29:03;102337.40;;;14.70
65290;BMP180;51893;59.754;10.110;2022-09-03T02:31:31;102335.40;;;14.70
65290;BMP180;51893;59.754;10.110;2022-09-03T02:33:59;102338.40;;;14.70
65290;BMP180;51893;59.754;10.110;2022-09-03T02:36:33;102337.40;;;14.62
65290;BMP180;51893;59.754;10.110;2022-09-03T02:39:02;102334.20;;;14.66
65290;BMP180;51893;59.754;10.110;2022-09-03T02:41:32;102333.00;;;14.70
65290;BMP180;51893;59.754;10.110;2022-09-03T02:44:15;102331.40;;;14.70
65290;BMP180;51893;59.754;10.110;2022-09-03T02:46:52;102327.40;;;14.70
65290;BMP180;51893;59.754;10.110;2022-09-03T02:49:22;102330.20;;;14.70
65290;BMP180;51893;59.754;10.110;2022-09-03T02:51:50;102325.40;;;14.70
65290;BMP180;51893;59.754;10.110;2022-09-03T02:54:18;102324.40;;;14.70
65290;BMP180;51893;59.754;10.110;2022-09-03T02:56:47;102326.80;;;14.60
65290;BMP180;51893;59.754;10.110;2022-09-03T02:59:16;102323.00;;;14.60
65290;BMP180;51893;59.754;10.110;2022-09-03T03:01:44;102324.60;;;14.60
65290;BMP180;51893;59.754;10.110;2022-09-03T03:04:14;102327.00;;;14.60
65290;BMP180;51893;59.754;10.110;2022-09-03T03:06:41;102327.60;;;14.60
65290;BMP180;51893;59.754;10.110;2022-09-03T03:09:14;102325.40;;;14.60
65290;BMP180;51893;59.754;10.110;2022-09-03T03:11:42;102322.40;;;14.60
65290;BMP180;51893;59.754;10.110;2022-09-03T03:14:10;102323.20;;;14.60
65290;BMP180;51893;59.754;10.110;2022-09-03T03:16:37;102323.20;;;14.60
65290;BMP180;51893;59.754;10.110;2022-09-03T03:19:05;102324.60;;;14.50
65290;BMP180;51893;59.754;10.110;2022-09-03T03:21:33;102320.40;;;14.50
65290;BMP180;51893;59.754;10.110;2022-09-03T03:24:02;102325.20;;;14.50
65290;BMP180;51893;59.754;10.110;2022-09-03T03:26:31;102321.80;;;14.50
65290;BMP180;51893;59.754;10.110;2022-09-03T03:29:01;102325.00;;;14.50
65290;BMP180;51893;59.754;10.110;2022-09-03T03:31:33;102325.40;;;14.44
65290;BMP180;51893;59.754;10.110;2022-09-03T03:34:02;102318.80;;;14.40
65290;BMP180;51893;59.754;10.110;2022-09-03T03:36:32;102322.40;;;14.40
65290;BMP180;51893;59.754;10.110;2022-09-03T03:39:01;102322.40;;;14.40
65290;BMP180;51893;59.754;10.110;2022-09-03T03:41:32;102323.80;;;14.40
65290;BMP180;51893;59.754;10.110;2022-09-03T03:44:06;102328.20;;;14.40
65290;BMP180;51893;59.754;10.110;2022-09-03T03:46:37;102324.20;;;14.40
65290;BMP180;51893;59.754;10.110;2022-09-03T03:49:07;102330.40;;;14.40
65290;BMP180;51893;59.754;10.110;2022-09-03T03:51:36;102326.60;;;14.40
65290;BMP180;51893;59.754;10.110;2022-09-03T03:54:05;102328.60;;;14.40
65290;BMP180;51893;59.754;10.110;2022-09-03T03:56:33;102329.20;;;14.30
65290;BMP180;51893;59.754;10.110;2022-09-03T03:59:03;102329.40;;;14.30
65290;BMP180;51893;59.754;10.110;2022-09-03T04:01:31;102331.20;;;14.40
65290;BMP180;51893;59.754;10.110;2022-09-03T04:03:59;102331.60;;;14.34
65290;BMP180;51893;59.754;10.110;2022-09-03T04:06:27;102330.40;;;14.40
65290;BMP180;51893;59.754;10.110;2022-09-03T04:08:55;102336.20;;;14.40
65290;BMP180;51893;59.754;10.110;2022-09-03T04:11:25;102340.00;;;14.40
65290;BMP180;51893;59.754;10.110;2022-09-03T04:13:54;102341.60;;;14.40
65290;BMP180;51893;59.754;10.110;2022-09-03T04:16:26;102339.00;;;14.36
65290;BMP180;51893;59.754;10.110;2022-09-03T04:18:55;102337.60;;;14.30
65290;BMP180;51893;59.754;10.110;2022-09-03T04:21:29;102342.20;;;14.30
65290;BMP180;51893;59.754;10.110;2022-09-03T04:23:57;102339.60;;;14.36
65290;BMP180;51893;59.754;10.110;2022-09-03T04:26:28;102342.00;;;14.38
65290;BMP180;51893;59.754;10.110;2022-09-03T04:29:09;102344.60;;;14.30
65290;BMP180;51893;59.754;10.110;2022-09-03T04:31:37;102341.60;;;14.30
65290;BMP180;51893;59.754;10.110;2022-09-03T04:34:06;102345.60;;;14.30
65290;BMP180;51893;59.754;10.110;2022-09-03T04:36:35;102343.80;;;14.30
65290;BMP180;51893;59.754;10.110;2022-09-03T04:39:03;102344.40;;;14.20
65290;BMP180;51893;59.754;10.110;2022-09-03T04:41:31;102347.20;;;14.20
65290;BMP180;51893;59.754;10.110;2022-09-03T04:43:59;102343.60;;;14.20
65290;BMP180;51893;59.754;10.110;2022-09-03T04:46:28;102347.20;;;14.28
65290;BMP180;51893;59.754;10.110;2022-09-03T04:49:01;102348.40;;;14.30
65290;BMP180;51893;59.754;10.110;2022-09-03T04:51:30;102351.00;;;14.20
65290;BMP180;51893;59.754;10.110;2022-09-03T04:54:00;102351.20;;;14.20
65290;BMP180;51893;59.754;10.110;2022-09-03T04:56:34;102358.80;;;14.10
65290;BMP180;51893;59.754;10.110;2022-09-03T04:59:08;102363.20;;;14.10
65290;BMP180;51893;59.754;10.110;2022-09-03T05:01:38;102359.80;;;14.10
65290;BMP180;51893;59.754;10.110;2022-09-03T05:04:07;102363.80;;;14.10
65290;BMP180;51893;59.754;10.110;2022-09-03T05:06:36;102362.00;;;14.10
65290;BMP180;51893;59.754;10.110;2022-09-03T05:09:04;102363.00;;;14.10
65290;BMP180;51893;59.754;10.110;2022-09-03T05:11:33;102361.40;;;14.10
65290;BMP180;51893;59.754;10.110;2022-09-03T05:14:01;102356.00;;;14.10
65290;BMP180;51893;59.754;10.110;2022-09-03T05:16:29;102360.40;;;14.10
65290;BMP180;51893;59.754;10.110;2022-09-03T05:18:59;102360.80;;;14.10
65290;BMP180;51893;59.754;10.110;2022-09-03T05:21:28;102360.20;;;14.10
65290;BMP180;51893;59.754;10.110;2022-09-03T05:23:59;102361.00;;;14.10
65290;BMP180;51893;59.754;10.110;2022-09-03T05:26:31;102359.80;;;14.18
65290;BMP180;51893;59.754;10.110;2022-09-03T05:29:04;102358.20;;;14.20
65290;BMP180;51893;59.754;10.110;2022-09-03T05:31:37;102360.40;;;14.20
65290;BMP180;51893;59.754;10.110;2022-09-03T05:34:07;102356.20;;;14.20
65290;BMP180;51893;59.754;10.110;2022-09-03T05:36:40;102359.00;;;14.20
65290;BMP180;51893;59.754;10.110;2022-09-03T05:39:08;102358.00;;;14.20
65290;BMP180;51893;59.754;10.110;2022-09-03T05:41:36;102363.60;;;14.30
65290;BMP180;51893;59.754;10.110;2022-09-03T05:44:03;102361.00;;;14.30
65290;BMP180;51893;59.754;10.110;2022-09-03T05:46:33;102356.80;;;14.30
65290;BMP180;51893;59.754;10.110;2022-09-03T05:49:05;102358.00;;;14.30
65290;BMP180;51893;59.754;10.110;2022-09-03T05:51:36;102357.00;;;14.30
65290;BMP180;51893;59.754;10.110;2022-09-03T05:54:06;102361.00;;;14.36
65290;BMP180;51893;59.754;10.110;2022-09-03T05:56:38;102360.00;;;14.40
65290;BMP180;51893;59.754;10.110;2022-09-03T05:59:09;102366.20;;;14.40
65290;BMP180;51893;59.754;10.110;2022-09-03T06:01:40;102370.20;;;14.40
65290;BMP180;51893;59.754;10.110;2022-09-03T06:04:18;102368.80;;;14.40
65290;BMP180;51893;59.754;10.110;2022-09-03T06:06:47;102369.40;;;14.46
65290;BMP180;51893;59.754;10.110;2022-09-03T06:09:19;102368.60;;;14.50
65290;BMP180;51893;59.754;10.110;2022-09-03T06:11:49;102368.20;;;14.50
65290;BMP180;51893;59.754;10.110;2022-09-03T06:14:20;102370.40;;;14.60
65290;BMP180;51893;59.754;10.110;2022-09-03T06:16:48;102369.20;;;14.60
65290;BMP180;51893;59.754;10.110;2022-09-03T06:19:16;102374.60;;;14.58
65290;BMP180;51893;59.754;10.110;2022-09-03T06:21:45;102378.40;;;14.54
65290;BMP180;51893;59.754;10.110;2022-09-03T06:24:18;102380.00;;;14.60
65290;BMP180;51893;59.754;10.110;2022-09-03T06:26:47;102378.20;;;14.60
65290;BMP180;51893;59.754;10.110;2022-09-03T06:29:15;102378.20;;;14.64
65290;BMP180;51893;59.754;10.110;2022-09-03T06:31:46;102378.60;;;14.70
65290;BMP180;51893;59.754;10.110;2022-09-03T06:34:17;102381.00;;;14.72
65290;BMP180;51893;59.754;10.110;2022-09-03T06:36:45;102376.20;;;14.70
65290;BMP180;51893;59.754;10.110;2022-09-03T06:39:14;102377.80;;;14.70
65290;BMP180;51893;59.754;10.110;2022-09-03T06:41:41;102377.80;;;14.70
65290;BMP180;51893;59.754;10.110;2022-09-03T06:44:12;102383.00;;;14.68
65290;BMP180;51893;59.754;10.110;2022-09-03T06:46:41;102382.20;;;14.66
65290;BMP180;51893;59.754;10.110;2022-09-03T06:49:10;102383.40;;;14.70
65290;BMP180;51893;59.754;10.110;2022-09-03T06:51:39;102384.80;;;14.70
65290;BMP180;51893;59.754;10.110;2022-09-03T06:54:10;102386.00;;;14.70
65290;BMP180;51893;59.754;10.110;2022-09-03T06:56:40;102390.20;;;14.74
65290;BMP180;51893;59.754;10.110;2022-09-03T06:59:13;102386.80;;;14.80
65290;BMP180;51893;59.754;10.110;2022-09-03T07:01:43;102386.40;;;14.80
65290;BMP180;51893;59.754;10.110;2022-09-03T07:04:14;102390.40;;;14.82
65290;BMP180;51893;59.754;10.110;2022-09-03T07:06:47;102389.00;;;14.80
65290;BMP180;51893;59.754;10.110;2022-09-03T07:09:15;102392.80;;;14.80
65290;BMP180;51893;59.754;10.110;2022-09-03T07:11:45;102389.20;;;14.80
65290;BMP180;51893;59.754;10.110;2022-09-03T07:14:17;102392.00;;;14.90
65290;BMP180;51893;59.754;10.110;2022-09-03T07:16:48;102393.00;;;14.90
65290;BMP180;51893;59.754;10.110;2022-09-03T07:19:16;102396.80;;;14.90
65290;BMP180;51893;59.754;10.110;2022-09-03T07:21:45;102394.80;;;14.90
65290;BMP180;51893;59.754;10.110;2022-09-03T07:24:18;102396.80;;;14.90
65290;BMP180;51893;59.754;10.110;2022-09-03T07:26:49;102399.00;;;14.98
65290;BMP180;51893;59.754;10.110;2022-09-03T07:29:18;102402.60;;;15.00
65290;BMP180;51893;59.754;10.110;2022-09-03T07:31:50;102405.60;;;15.00
65290;BMP180;51893;59.754;10.110;2022-09-03T07:34:21;102410.00;;;15.00
65290;BMP180;51893;59.754;10.110;2022-09-03T07:36:53;102415.80;;;15.10
65290;BMP180;51893;59.754;10.110;2022-09-03T07:39:21;102416.80;;;15.10
65290;BMP180;51893;59.754;10.110;2022-09-03T07:41:50;102419.40;;;15.10
65290;BMP180;51893;59.754;10.110;2022-09-03T07:44:18;102416.20;;;15.10
65290;BMP180;51893;59.754;10.110;2022-09-03T07:46:47;102419.80;;;15.10
65290;BMP180;51893;59.754;10.110;2022-09-03T07:49:20;102416.20;;;15.10
65290;BMP180;51893;59.754;10.110;2022-09-03T07:51:49;102411.60;;;15.10
65290;BMP180;51893;59.754;10.110;2022-09-03T07:54:19;102413.80;;;15.10
65290;BMP180;51893;59.754;10.110;2022-09-03T07:56:48;102412.60;;;15.10
65290;BMP180;51893;59.754;10.110;2022-09-03T07:59:16;102414.20;;;15.10
65290;BMP180;51893;59.754;10.110;2022-09-03T08:01:44;102411.80;;;15.10
65290;BMP180;51893;59.754;10.110;2022-09-03T08:04:12;102415.40;;;15.10
65290;BMP180;51893;59.754;10.110;2022-09-03T08:06:41;102417.00;;;15.20
65290;BMP180;51893;59.754;10.110;2022-09-03T08:09:11;102415.60;;;15.20
65290;BMP180;51893;59.754;10.110;2022-09-03T08:11:42;102418.80;;;15.30
65290;BMP180;51893;59.754;10.110;2022-09-03T08:14:12;102421.20;;;15.30
65290;BMP180;51893;59.754;10.110;2022-09-03T08:16:44;102421.60;;;15.30
65290;BMP180;51893;59.754;10.110;2022-09-03T08:19:16;102423.60;;;15.32
65290;BMP180;51893;59.754;10.110;2022-09-03T08:21:45;102427.20;;;15.40
65290;BMP180;51893;59.754;10.110;2022-09-03T08:24:16;102423.00;;;15.40
65290;BMP180;51893;59.754;10.110;2022-09-03T08:26:46;102426.40;;;15.50
65290;BMP180;51893;59.754;10.110;2022-09-03T08:29:20;102428.60;;;15.50
65290;BMP180;51893;59.754;10.110;2022-09-03T08:31:49;102426.60;;;15.50
65290;BMP180;51893;59.754;10.110;2022-09-03T08:34:17;102430.80;;;15.60
65290;BMP180;51893;59.754;10.110;2022-09-03T08:36:46;102433.80;;;15.60
65290;BMP180;51893;59.754;10.110;2022-09-03T08:39:15;102436.80;;;15.70
65290;BMP180;51893;59.754;10.110;2022-09-03T08:44:33;102439.60;;;15.70
65290;BMP180;51893;59.754;10.110;2022-09-03T08:47:14;102441.80;;;15.74
65290;BMP180;51893;59.754;10.110;2022-09-03T08:53:10;102446.60;;;15.90
65290;BMP180;51893;59.754;10.110;2022-09-03T08:58:20;102452.60;;;16.16
65290;BMP180;51893;59.754;10.110;2022-09-03T09:07:26;102454.80;;;16.30
65290;BMP180;51893;59.754;10.110;2022-09-03T09:10:48;102461.40;;;16.40
65290;BMP180;51893;59.754;10.110;2022-09-03T09:13:46;102459.60;;;16.40
65290;BMP180;51893;59.754;10.110;2022-09-03T09:16:26;102463.60;;;16.40
65290;BMP180;51893;59.754;10.110;2022-09-03T09:22:24;102457.40;;;16.40
65290;BMP180;51893;59.754;10.110;2022-09-03T09:24:58;102454.00;;;16.60
65290;BMP180;51893;59.754;10.110;2022-09-03T09:27:28;102453.80;;;16.72
65290;BMP180;51893;59.754;10.110;2022-09-03T09:29:58;102455.80;;;16.80
65290;BMP180;51893;59.754;10.110;2022-09-03T09:32:29;102451.40;;;16.90
65290;BMP180;51893;59.754;10.110;2022-09-03T09:34:58;102448.20;;;17.10
65290;BMP180;51893;59.754;10.110;2022-09-03T09:37:25;102447.00;;;17.30
65290;BMP180;51893;59.754;10.110;2022-09-03T09:39:59;102448.40;;;17.50
65290;BMP180;51893;59.754;10.110;2022-09-03T09:42:28;102456.60;;;17.50
65290;BMP180;51893;59.754;10.110;2022-09-03T09:45:09;102458.20;;;17.50
65290;BMP180;51893;59.754;10.110;2022-09-03T09:47:39;102462.80;;;17.50
65290;BMP180;51893;59.754;10.110;2022-09-03T09:50:19;102467.60;;;17.50
65290;BMP180;51893;59.754;10.110;2022-09-03T09:53:07;102469.40;;;17.50
65290;BMP180;51893;59.754;10.110;2022-09-03T09:55:54;102465.60;;;17.40
65290;BMP180;51893;59.754;10.110;2022-09-03T09:58:27;102458.00;;;17.56
65290;BMP180;51893;59.754;10.110;2022-09-03T10:01:11;102456.60;;;17.78
65290;BMP180;51893;59.754;10.110;2022-09-03T10:03:56;102457.80;;;18.00
65290;BMP180;51893;59.754;10.110;2022-09-03T10:06:29;102456.40;;;18.20
65290;BMP180;51893;59.754;10.110;2022-09-03T10:09:20;102457.60;;;18.40
65290;BMP180;51893;59.754;10.110;2022-09-03T10:12:20;102463.20;;;18.68
65290;BMP180;51893;59.754;10.110;2022-09-03T10:15:17;102471.60;;;18.80
65290;BMP180;51893;59.754;10.110;2022-09-03T10:18:10;102472.20;;;18.90
65290;BMP180;51893;59.754;10.110;2022-09-03T10:20:52;102473.00;;;18.80
65290;BMP180;51893;59.754;10.110;2022-09-03T10:23:31;102483.60;;;18.60
65290;BMP180;51893;59.754;10.110;2022-09-03T10:26:18;102482.80;;;18.50
65290;BMP180;51893;59.754;10.110;2022-09-03T10:28:51;102478.80;;;18.40
65290;BMP180;51893;59.754;10.110;2022-09-03T10:31:44;102472.00;;;18.44
65290;BMP180;51893;59.754;10.110;2022-09-03T10:37:26;102477.20;;;18.40
65290;BMP180;51893;59.754;10.110;2022-09-03T10:40:28;102483.20;;;18.40
65290;BMP180;51893;59.754;10.110;2022-09-03T10:43:21;102482.40;;;18.40
65290;BMP180;51893;59.754;10.110;2022-09-03T10:46:08;102481.80;;;18.40
65290;BMP180;51893;59.754;10.110;2022-09-03T10:55:08;102489.80;;;18.50
65290;BMP180;51893;59.754;10.110;2022-09-03T11:00:17;102482.80;;;18.70
65290;BMP180;51893;59.754;10.110;2022-09-03T11:06:27;102488.60;;;18.90
65290;BMP180;51893;59.754;10.110;2022-09-03T11:09:07;102481.40;;;18.90
65290;BMP180;51893;59.754;10.110;2022-09-03T11:11:59;102484.40;;;19.10
65290;BMP180;51893;59.754;10.110;2022-09-03T11:14:39;102486.20;;;19.30
65290;BMP180;51893;59.754;10.110;2022-09-03T11:17:25;102486.80;;;19.50
65290;BMP180;51893;59.754;10.110;2022-09-03T11:20:17;102487.80;;;19.70
65290;BMP180;51893;59.754;10.110;2022-09-03T11:22:50;102488.20;;;19.80
65290;BMP180;51893;59.754;10.110;2022-09-03T11:25:25;102492.80;;;19.90
65290;BMP180;51893;59.754;10.110;2022-09-03T11:28:26;102490.00;;;20.00
65290;BMP180;51893;59.754;10.110;2022-09-03T11:31:28;102493.80;;;20.08
65290;BMP180;51893;59.754;10.110;2022-09-03T11:34:12;102495.80;;;20.10
65290;BMP180;51893;59.754;10.110;2022-09-03T11:36:50;102492.60;;;20.28
65290;BMP180;51893;59.754;10.110;2022-09-03T11:39:34;102490.40;;;20.50
65290;BMP180;51893;59.754;10.110;2022-09-03T11:42:31;102491.20;;;20.72
65290;BMP180;51893;59.754;10.110;2022-09-03T11:45:37;102493.60;;;20.86
65290;BMP180;51893;59.754;10.110;2022-09-03T11:54:08;102511.60;;;21.00
65290;BMP180;51893;59.754;10.110;2022-09-03T11:59:50;102514.40;;;21.10
65290;BMP180;51893;59.754;10.110;2022-09-03T12:05:25;102532.00;;;21.52
65290;BMP180;51893;59.754;10.110;2022-09-03T12:07:58;102534.60;;;21.20
65290;BMP180;51893;59.754;10.110;2022-09-03T12:11:01;102530.80;;;20.90
65290;BMP180;51893;59.754;10.110;2022-09-03T12:14:26;102528.60;;;20.90
65290;BMP180;51893;59.754;10.110;2022-09-03T12:20:38;102525.80;;;20.70
65290;BMP180;51893;59.754;10.110;2022-09-03T12:23:10;102527.40;;;20.50
65290;BMP180;51893;59.754;10.110;2022-09-03T12:25:43;102527.00;;;20.30
65290;BMP180;51893;59.754;10.110;2022-09-03T12:28:23;102518.40;;;20.20
65290;BMP180;51893;59.754;10.110;2022-09-03T12:30:52;102519.00;;;20.10
65290;BMP180;51893;59.754;10.110;2022-09-03T12:33:22;102514.20;;;20.20
65290;BMP180;51893;59.754;10.110;2022-09-03T12:35:58;102514.60;;;20.40
65290;BMP180;51893;59.754;10.110;2022-09-03T12:38:28;102507.80;;;20.60
65290;BMP180;51893;59.754;10.110;2022-09-03T12:41:29;102511.40;;;20.86
65290;BMP180;51893;59.754;10.110;2022-09-03T12:43:59;102508.40;;;21.10
65290;BMP180;51893;59.754;10.110;2022-09-03T12:46:32;102509.80;;;21.30
65290;BMP180;51893;59.754;10.110;2022-09-03T12:49:05;102515.00;;;21.50
65290;BMP180;51893;59.754;10.110;2022-09-03T12:54:50;102516.20;;;21.60
65290;BMP180;51893;59.754;10.110;2022-09-03T12:57:23;102522.20;;;21.60
65290;BMP180;51893;59.754;10.110;2022-09-03T12:59:59;102516.60;;;21.50
65290;BMP180;51893;59.754;10.110;2022-09-03T13:03:06;102515.20;;;21.60
65290;BMP180;51893;59.754;10.110;2022-09-03T13:05:50;102522.00;;;21.70
65290;BMP180;51893;59.754;10.110;2022-09-03T13:08:26;102517.80;;;21.76
65290;BMP180;51893;59.754;10.110;2022-09-03T13:10:59;102522.80;;;21.88
65290;BMP180;51893;59.754;10.110;2022-09-03T13:13:35;102525.00;;;21.70
65290;BMP180;51893;59.754;10.110;2022-09-03T13:16:50;102519.00;;;21.60
65290;BMP180;51893;59.754;10.110;2022-09-03T13:19:37;102516.40;;;21.50
65290;BMP180;51893;59.754;10.110;2022-09-03T13:22:49;102516.20;;;21.70
65290;BMP180;51893;59.754;10.110;2022-09-03T13:25:31;102517.00;;;22.00
65290;BMP180;51893;59.754;10.110;2022-09-03T13:28:31;102517.00;;;22.22
65290;BMP180;51893;59.754;10.110;2022-09-03T13:31:30;102524.60;;;22.20
65290;BMP180;51893;59.754;10.110;2022-09-03T13:36:51;102525.20;;;21.82
65290;BMP180;51893;59.754;10.110;2022-09-03T13:39:40;102525.40;;;21.70
65290;BMP180;51893;59.754;10.110;2022-09-03T13:42:31;102522.60;;;21.60
65290;BMP180;51893;59.754;10.110;2022-09-03T13:47:57;102507.20;;;21.40
65290;BMP180;51893;59.754;10.110;2022-09-03T13:53:54;102510.60;;;21.70
65290;BMP180;51893;59.754;10.110;2022-09-03T13:56:53;102515.20;;;21.80
65290;BMP180;51893;59.754;10.110;2022-09-03T14:02:49;102520.00;;;21.80
65290;BMP180;51893;59.754;10.110;2022-09-03T14:08:24;102526.60;;;21.68
65290;BMP180;51893;59.754;10.110;2022-09-03T14:19:16;102535.60;;;21.50
65290;BMP180;51893;59.754;10.110;2022-09-03T14:22:08;102535.40;;;21.30
65290;BMP180;51893;59.754;10.110;2022-09-03T14:24:52;102532.40;;;21.10
65290;BMP180;51893;59.754;10.110;2022-09-03T14:27:27;102532.20;;;20.90
65290;BMP180;51893;59.754;10.110;2022-09-03T14:33:26;102528.40;;;20.60
65290;BMP180;51893;59.754;10.110;2022-09-03T14:36:25;102536.20;;;20.40
65290;BMP180;51893;59.754;10.110;2022-09-03T14:39:26;102532.80;;;20.20
65290;BMP180;51893;59.754;10.110;2022-09-03T14:50:53;102521.80;;;20.00
65290;BMP180;51893;59.754;10.110;2022-09-03T14:56:51;102520.60;;;19.80
65290;BMP180;51893;59.754;10.110;2022-09-03T15:02:37;102507.20;;;19.50
65290;BMP180;51893;59.754;10.110;2022-09-03T15:05:44;102510.20;;;19.40
65290;BMP180;51893;59.754;10.110;2022-09-03T15:11:19;102511.60;;;19.30
65290;BMP180;51893;59.754;10.110;2022-09-03T15:19:50;102504.20;;;19.16
65290;BMP180;51893;59.754;10.110;2022-09-03T15:22:44;102503.60;;;19.20
65290;BMP180;51893;59.754;10.110;2022-09-03T15:34:11;102492.00;;;19.00
65290;BMP180;51893;59.754;10.110;2022-09-03T15:36:49;102489.60;;;18.90
65290;BMP180;51893;59.754;10.110;2022-09-03T15:39:32;102487.40;;;18.90
65290;BMP180;51893;59.754;10.110;2022-09-03T15:42:25;102490.80;;;18.86
65290;BMP180;51893;59.754;10.110;2022-09-03T15:45:04;102489.80;;;18.80
65290;BMP180;51893;59.754;10.110;2022-09-03T15:47:46;102491.20;;;18.80
65290;BMP180;51893;59.754;10.110;2022-09-03T15:50:34;102490.00;;;18.78
65290;BMP180;51893;59.754;10.110;2022-09-03T15:53:26;102487.20;;;18.70
65290;BMP180;51893;59.754;10.110;2022-09-03T15:56:37;102484.00;;;18.70
65290;BMP180;51893;59.754;10.110;2022-09-03T15:59:46;102484.40;;;18.58
65290;BMP180;51893;59.754;10.110;2022-09-03T16:08:24;102490.00;;;18.30
65290;BMP180;51893;59.754;10.110;2022-09-03T16:16:25;102490.80;;;18.20
65290;BMP180;51893;59.754;10.110;2022-09-03T16:19:09;102490.20;;;18.20
65290;BMP180;51893;59.754;10.110;2022-09-03T16:22:02;102488.00;;;18.10
65290;BMP180;51893;59.754;10.110;2022-09-03T16:24:52;102494.00;;;18.10
65290;BMP180;51893;59.754;10.110;2022-09-03T16:27:35;102489.60;;;18.10
65290;BMP180;51893;59.754;10.110;2022-09-03T16:36:24;102472.40;;;18.00
65290;BMP180;51893;59.754;10.110;2022-09-03T16:39:18;102476.40;;;18.00
65290;BMP180;51893;59.754;10.110;2022-09-03T16:48:19;102474.80;;;17.86
65290;BMP180;51893;59.754;10.110;2022-09-03T17:00:07;102477.60;;;17.78
65290;BMP180;51893;59.754;10.110;2022-09-03T17:11:52;102470.00;;;17.70
65290;BMP180;51893;59.754;10.110;2022-09-03T17:17:57;102474.20;;;17.70
65290;BMP180;51893;59.754;10.110;2022-09-03T17:25:39;102472.00;;;17.70
65290;BMP180;51893;59.754;10.110;2022-09-03T17:43:46;102487.40;;;17.50
65290;BMP180;51893;59.754;10.110;2022-09-03T17:46:53;102490.20;;;17.40
65290;BMP180;51893;59.754;10.110;2022-09-03T17:49:30;102489.40;;;17.30
65290;BMP180;51893;59.754;10.110;2022-09-03T17:52:27;102491.80;;;17.30
65290;BMP180;51893;59.754;10.110;2022-09-03T17:55:12;102485.60;;;17.30
65290;BMP180;51893;59.754;10.110;2022-09-03T17:57:50;102487.20;;;17.20
65290;BMP180;51893;59.754;10.110;2022-09-03T18:03:28;102484.80;;;17.20
65290;BMP180;51893;59.754;10.110;2022-09-03T18:06:07;102486.80;;;17.10
65290;BMP180;51893;59.754;10.110;2022-09-03T18:08:56;102490.00;;;17.10
65290;BMP180;51893;59.754;10.110;2022-09-03T18:11:49;102489.00;;;17.10
65290;BMP180;51893;59.754;10.110;2022-09-03T18:14:46;102494.40;;;17.08
65290;BMP180;51893;59.754;10.110;2022-09-03T18:20:08;102495.60;;;17.00
65290;BMP180;51893;59.754;10.110;2022-09-03T18:23:09;102493.60;;;16.94